Observations for CULDROSE NAVY, United Kingdom (EGDR)

EGDR 180450Z 27008KT 9999 FEW008 SCT012 13/11 Q1020 REDZ GRN
EGDR 180350Z 27010KT 9999 -DZ FEW005 BKN012 13/12 Q1020 GRN 
EGDR 180250Z 27008KT 3000 -RADZ FEW002 BKN005 OVC012 13/12 Q1020 YLO1   
EGDR 180150Z 27009KT 3000 -DZ SCT002 BKN004 OVC012 13/13 Q1019 AMB  
EGDR 180050Z 28007KT 4000 -DZ FEW002 BKN004 OVC012 14/13 Q1020 YLO2 
EGDR 172350Z AUTO 27014KT 9999 // BKN011/// BKN017/// 14/12 Q1019   
EGDR 172250Z AUTO 25008KT 9999 // FEW010/// BKN015/// 14/13 Q1019   
EGDR 172150Z AUTO 26008KT 9999 // FEW011/// BKN015/// 14/12 Q1019   
EGDR 172050Z AUTO 26010KT 9999 // OVC009/// 14/13 Q1018 
EGDR 171950Z AUTO 26013KT 9999 // OVC009/// 14/13 Q1018 
EGDR 171850Z AUTO 25009KT 9999 // FEW002/// BKN008/// 15/14 Q1018   
EGDR 171750Z AUTO 25008KT 5000 // OVC001/// 15/14 Q1017 
EGDR 171650Z AUTO 25010KT 5000 // OVC001/// 15/15 Q1017 
EGDR 171550Z AUTO 24013KT 0350 // OVC001/// 15/15 Q1016 
EGDR 171450Z AUTO 24010KT 1100 // OVC001/// 15/15 Q1016 
EGDR 171350Z AUTO 24011KT 3600 // OVC001/// 15/15 Q1016 
EGDR 171250Z AUTO 23014KT 5000 // OVC001/// 15/15 Q1016 
EGDR 171150Z AUTO 23015KT 6000 // OVC001/// 15/15 Q1016 
EGDR 171050Z AUTO 22017KT 1000 // VV/// 15/14 Q1016 
EGDR 170950Z AUTO 21018KT 1500 // OVC001/// 14/14 Q1016 
EGDR 170850Z AUTO 21016KT 1500 // OVC001/// 13/13 Q1016 
EGDR 170750Z AUTO 21016KT 4100 // BKN002/// SCT009/// 13/13 Q1017   
EGDR 170650Z AUTO 22017KT 9999 // FEW020/// BKN033/// 14/11 Q1016   
EGDR 170550Z AUTO 23015KT 9999 // FEW029/// SCT035/// BKN042/// 14/11 Q1016 
EGDR 170450Z AUTO 24014KT 9999 // BKN060/// 14/11 Q1017